createdAt,value
2019-01-27T00:01:05.215Z,6.80
2019-01-27T00:03:36.293Z,5.43
2019-01-27T00:06:05.803Z,5.07
2019-01-27T00:08:35.696Z,7.30
2019-01-27T00:11:05.489Z,6.10
2019-01-27T00:13:35.056Z,5.00
2019-01-27T00:16:04.654Z,5.43
2019-01-27T00:18:34.170Z,4.90
2019-01-27T00:21:03.623Z,6.30
2019-01-27T00:23:33.470Z,7.67
2019-01-27T00:26:02.925Z,5.50
2019-01-27T00:28:32.442Z,5.63
2019-01-27T00:31:02.253Z,5.03
2019-01-27T00:33:31.718Z,5.93
2019-01-27T00:36:01.188Z,5.37
2019-01-27T00:38:30.922Z,6.03
2019-01-27T00:41:00.624Z,5.00
2019-01-27T00:43:30.121Z,6.77
2019-01-27T00:45:59.576Z,4.33
2019-01-27T00:48:29.345Z,4.70
2019-01-27T00:50:58.806Z,4.47
2019-01-27T00:53:31.249Z,4.00
2019-01-27T00:56:00.713Z,4.10
2019-01-27T00:58:30.220Z,3.87
2019-01-27T01:01:00.486Z,3.90
2019-01-27T01:03:29.923Z,4.53
2019-01-27T01:05:59.782Z,3.70
2019-01-27T01:08:29.214Z,4.10
2019-01-27T01:10:58.670Z,3.90
2019-01-27T01:13:28.175Z,4.57
2019-01-27T01:15:57.636Z,4.23
2019-01-27T01:18:27.083Z,4.93
2019-01-27T01:20:56.621Z,4.83
2019-01-27T01:23:26.128Z,5.37
2019-01-27T01:25:55.863Z,4.57
2019-01-27T01:28:25.302Z,4.97
2019-01-27T01:30:56.228Z,3.70
2019-01-27T01:33:25.666Z,4.30
2019-01-27T01:35:55.123Z,4.47
2019-01-27T01:38:24.627Z,4.10
2019-01-27T01:40:54.447Z,4.17
2019-01-27T01:43:23.887Z,4.37
2019-01-27T01:45:53.347Z,3.47
2019-01-27T01:48:22.787Z,3.70
2019-01-27T01:50:52.296Z,3.90
2019-01-27T01:53:21.726Z,4.13
2019-01-27T01:55:51.183Z,5.07
2019-01-27T01:58:20.648Z,3.70
2019-01-27T02:00:50.514Z,4.20
2019-01-27T02:03:19.962Z,4.30
2019-01-27T02:05:49.420Z,3.50
2019-01-27T02:08:18.916Z,5.17
2019-01-27T02:10:48.388Z,4.70
2019-01-27T02:13:19.462Z,5.37
2019-01-27T02:16:02.545Z,4.60
2019-01-27T02:18:32.057Z,5.50
2019-01-27T02:21:01.985Z,4.87
2019-01-27T02:23:31.419Z,6.20
2019-01-27T02:26:00.880Z,4.60
2019-01-27T02:28:30.405Z,3.97
2019-01-27T02:31:01.550Z,3.63
2019-01-27T02:33:30.995Z,3.63
2019-01-27T02:36:00.587Z,4.17
2019-01-27T02:38:30.102Z,3.33
2019-01-27T02:40:59.813Z,3.70
2019-01-27T02:43:29.678Z,3.00
2019-01-27T02:45:59.134Z,3.10
2019-01-27T02:48:28.904Z,3.37
2019-01-27T02:50:58.355Z,3.13
2019-01-27T02:53:27.833Z,3.10
2019-01-27T02:55:57.290Z,2.97
2019-01-27T02:58:26.735Z,3.60
2019-01-27T03:00:56.195Z,3.13
2019-01-27T03:03:25.640Z,2.40
2019-01-27T03:05:56.724Z,3.60
2019-01-27T03:08:26.229Z,2.33
2019-01-27T03:10:55.684Z,2.20
2019-01-27T03:13:25.126Z,2.60
2019-01-27T03:15:54.592Z,2.93
2019-01-27T03:18:24.037Z,2.33
2019-01-27T03:20:53.497Z,2.30
2019-01-27T03:23:22.941Z,2.93
2019-01-27T03:25:52.706Z,2.63
2019-01-27T03:28:22.165Z,2.20
2019-01-27T03:30:51.929Z,3.17
2019-01-27T03:33:21.734Z,2.37
2019-01-27T03:35:51.262Z,3.10
2019-01-27T03:38:20.710Z,2.57
2019-01-27T03:40:50.166Z,2.53
2019-01-27T03:43:19.606Z,3.03
2019-01-27T03:45:49.112Z,3.83
2019-01-27T03:48:18.876Z,2.67
2019-01-27T03:50:48.443Z,2.60
2019-01-27T03:53:17.887Z,3.13
2019-01-27T03:55:47.603Z,2.90
2019-01-27T03:58:17.126Z,3.10
2019-01-27T04:00:46.677Z,2.47
2019-01-27T04:03:16.132Z,2.70
2019-01-27T04:05:45.946Z,3.07
2019-01-27T04:08:16.883Z,3.17
2019-01-27T04:10:46.701Z,2.80
2019-01-27T04:13:16.136Z,2.77
2019-01-27T04:15:45.729Z,2.63
2019-01-27T04:18:15.177Z,2.93
2019-01-27T04:20:44.640Z,2.97
2019-01-27T04:23:14.552Z,2.40
2019-01-27T04:25:44.019Z,2.87
2019-01-27T04:28:13.466Z,2.50
2019-01-27T04:30:42.940Z,3.10
2019-01-27T04:33:12.421Z,3.67
2019-01-27T04:35:41.862Z,2.83
2019-01-27T04:38:13.103Z,4.13
2019-01-27T04:40:42.563Z,4.10
2019-01-27T04:43:11.998Z,4.73
2019-01-27T04:45:41.448Z,3.40
2019-01-27T04:48:11.243Z,3.97
2019-01-27T04:50:40.706Z,5.60
2019-01-27T04:53:10.147Z,4.83
2019-01-27T04:55:39.611Z,6.13
2019-01-27T04:58:09.459Z,5.10
2019-01-27T05:00:38.903Z,5.63
2019-01-27T05:03:19.128Z,6.50
2019-01-27T05:05:48.562Z,6.17
2019-01-27T05:08:19.405Z,6.03
2019-01-27T05:10:49.154Z,6.87
2019-01-27T05:13:18.608Z,6.27
2019-01-27T05:15:48.063Z,4.93
2019-01-27T05:18:17.490Z,7.03
2019-01-27T05:20:46.937Z,6.90
2019-01-27T05:23:16.380Z,7.47
2019-01-27T05:25:46.193Z,9.27
2019-01-27T05:28:17.263Z,8.40
2019-01-27T05:30:46.757Z,10.67
2019-01-27T05:33:16.194Z,9.47
2019-01-27T05:35:45.632Z,11.20
2019-01-27T05:38:15.083Z,13.53
2019-01-27T05:40:44.870Z,11.83
2019-01-27T05:43:14.683Z,14.73
2019-01-27T05:45:44.137Z,13.50
2019-01-27T05:48:13.591Z,11.17
2019-01-27T05:50:43.030Z,11.50
2019-01-27T05:53:12.526Z,12.33
2019-01-27T05:55:42.001Z,10.13
2019-01-27T05:58:11.465Z,10.97
2019-01-27T06:00:42.582Z,11.23
2019-01-27T06:03:12.035Z,10.77
2019-01-27T06:05:41.535Z,11.07
2019-01-27T06:08:11.530Z,10.13
2019-01-27T06:10:41.045Z,11.10
2019-01-27T06:13:10.493Z,12.03
2019-01-27T06:15:39.970Z,10.53
2019-01-27T06:18:09.440Z,11.03
2019-01-27T06:20:38.885Z,10.27
2019-01-27T06:23:08.330Z,9.40
2019-01-27T06:25:38.132Z,12.67
2019-01-27T06:28:07.607Z,10.77
2019-01-27T06:30:37.055Z,11.33
2019-01-27T06:33:11.076Z,13.67
2019-01-27T06:35:41.015Z,13.10
2019-01-27T06:38:10.475Z,12.87
2019-01-27T06:40:39.922Z,14.87
2019-01-27T06:43:09.374Z,11.87
2019-01-27T06:45:39.594Z,14.20
2019-01-27T06:48:09.386Z,13.63
2019-01-27T06:50:39.095Z,15.27
2019-01-27T06:53:08.816Z,17.17
2019-01-27T06:55:38.614Z,16.93
2019-01-27T06:58:08.074Z,15.23
2019-01-27T07:00:39.240Z,15.03
2019-01-27T07:03:11.018Z,16.57
2019-01-27T07:06:00.290Z,14.30
2019-01-27T07:08:43.499Z,14.73
2019-01-27T07:11:14.599Z,15.17
2019-01-27T07:14:02.130Z,16.47
2019-01-27T07:16:36.506Z,18.40
2019-01-27T07:19:07.855Z,16.00
2019-01-27T07:21:54.769Z,19.03
2019-01-27T07:24:26.116Z,16.93
2019-01-27T07:29:59.156Z,19.27
2019-01-27T07:32:30.604Z,18.90
2019-01-27T07:35:07.815Z,20.60
2019-01-27T07:37:38.932Z,18.10
2019-01-27T07:40:12.137Z,18.93
2019-01-27T07:42:43.259Z,16.70
2019-01-27T07:45:31.045Z,15.13
2019-01-27T07:48:05.228Z,15.00
2019-01-27T07:50:45.284Z,12.77
2019-01-27T07:53:19.033Z,14.83
2019-01-27T07:55:59.860Z,17.23
2019-01-27T07:58:46.030Z,15.83
2019-01-27T08:01:17.398Z,14.67
2019-01-27T08:03:48.853Z,15.73
2019-01-27T08:06:19.943Z,13.30
2019-01-27T08:08:53.465Z,13.63
2019-01-27T08:11:33.582Z,14.57
2019-01-27T08:14:04.760Z,13.23
2019-01-27T08:16:35.890Z,13.87
2019-01-27T08:19:19.061Z,13.73
2019-01-27T08:21:50.604Z,15.53
2019-01-27T08:24:31.185Z,13.13
2019-01-27T08:27:18.183Z,14.37
2019-01-27T08:29:52.060Z,15.13
2019-01-27T08:32:38.547Z,15.67
2019-01-27T08:35:13.003Z,15.17
2019-01-27T08:37:44.391Z,13.87
2019-01-27T08:40:32.622Z,14.93
2019-01-27T08:43:13.053Z,15.90
2019-01-27T08:45:44.159Z,16.00
2019-01-27T08:48:13.647Z,16.43
2019-01-27T08:50:43.211Z,16.90
2019-01-27T08:53:12.699Z,14.93
2019-01-27T08:55:42.185Z,15.43
2019-01-27T08:58:13.245Z,15.47
2019-01-27T09:00:43.377Z,18.87
2019-01-27T09:03:17.207Z,16.77
2019-01-27T09:05:48.318Z,15.33
2019-01-27T09:08:22.532Z,12.10
2019-01-27T09:10:53.616Z,6.23
2019-01-27T09:13:30.142Z,5.53
2019-01-27T09:16:07.200Z,5.23
2019-01-27T09:18:41.030Z,4.67
2019-01-27T09:21:12.691Z,3.70
2019-01-27T09:23:46.503Z,6.47
2019-01-27T09:26:20.563Z,4.77
2019-01-27T09:28:54.374Z,4.60
2019-01-27T09:31:25.472Z,4.40
2019-01-27T09:34:02.239Z,4.57
2019-01-27T09:36:49.343Z,4.97
2019-01-27T09:39:23.229Z,5.23
2019-01-27T09:42:03.541Z,4.37
2019-01-27T09:44:34.639Z,4.10
2019-01-27T09:47:08.588Z,4.80
2019-01-27T09:49:48.639Z,7.20
2019-01-27T09:52:25.693Z,5.23
2019-01-27T09:54:59.880Z,6.87
2019-01-27T09:57:37.327Z,4.90
2019-01-27T10:00:38.667Z,4.40
2019-01-27T10:03:18.703Z,4.80
2019-01-27T10:05:50.148Z,4.47
2019-01-27T10:08:21.250Z,4.87
2019-01-27T10:10:58.461Z,4.77
2019-01-27T10:13:32.011Z,5.27
2019-01-27T10:16:03.528Z,4.07
2019-01-27T10:18:37.323Z,5.23
2019-01-27T10:21:17.223Z,3.70
2019-01-27T10:23:54.587Z,3.23
2019-01-27T10:26:37.987Z,3.90
2019-01-27T10:29:12.130Z,3.57
2019-01-27T10:31:58.241Z,3.87
2019-01-27T10:37:27.721Z,4.17
2019-01-27T10:39:59.219Z,3.57
2019-01-27T10:42:36.099Z,3.00
2019-01-27T10:45:27.778Z,3.57
2019-01-27T10:48:16.900Z,3.17
2019-01-27T10:50:48.321Z,3.23
2019-01-27T10:53:25.563Z,3.00
2019-01-27T10:55:56.583Z,2.80
2019-01-27T10:58:30.243Z,3.80
2019-01-27T11:01:17.207Z,2.03
2019-01-27T11:03:54.203Z,2.97
2019-01-27T11:06:28.245Z,3.40
2019-01-27T11:09:08.114Z,2.13
2019-01-27T11:11:53.978Z,1.93
2019-01-27T11:14:33.976Z,1.67
2019-01-27T11:17:07.484Z,2.20
2019-01-27T11:19:44.043Z,1.97
2019-01-27T11:22:15.121Z,2.00
2019-01-27T11:24:54.899Z,1.93
2019-01-27T11:27:41.178Z,3.37
2019-01-27T11:30:20.939Z,2.00
2019-01-27T11:32:52.296Z,2.97
2019-01-27T11:35:26.297Z,2.93
2019-01-27T11:37:59.774Z,3.07
2019-01-27T11:40:42.595Z,1.70
2019-01-27T11:43:28.376Z,2.33
2019-01-27T11:46:08.177Z,1.83
2019-01-27T11:48:42.563Z,3.03
2019-01-27T11:51:13.645Z,2.00
2019-01-27T11:53:43.077Z,2.00
2019-01-27T11:56:12.824Z,2.33
2019-01-27T11:58:42.570Z,3.07
2019-01-27T12:01:12.346Z,2.43
2019-01-27T12:03:42.063Z,2.90
2019-01-27T12:06:11.507Z,2.83
2019-01-27T12:08:40.943Z,3.00
2019-01-27T12:11:10.651Z,1.90
2019-01-27T12:13:40.084Z,2.00
2019-01-27T12:16:09.803Z,2.70
2019-01-27T12:18:39.317Z,3.00
2019-01-27T12:21:09.026Z,2.80
2019-01-27T12:23:38.461Z,2.47
2019-01-27T12:26:07.907Z,2.70
2019-01-27T12:28:37.351Z,2.60
2019-01-27T12:31:06.844Z,2.83
2019-01-27T12:33:36.524Z,2.20
2019-01-27T12:36:06.048Z,3.13
2019-01-27T12:38:35.479Z,2.53
2019-01-27T12:41:05.244Z,2.50
2019-01-27T12:43:34.952Z,2.70
2019-01-27T12:46:04.401Z,2.27
2019-01-27T12:48:33.830Z,2.43
2019-01-27T12:51:03.279Z,2.13
2019-01-27T12:53:32.915Z,2.77
2019-01-27T12:56:02.374Z,1.90
2019-01-27T12:58:31.811Z,2.10
2019-01-27T13:01:01.535Z,2.57
2019-01-27T13:03:30.967Z,2.67
2019-01-27T13:06:00.464Z,2.47
2019-01-27T13:08:29.915Z,3.10
2019-01-27T13:10:59.636Z,4.47
2019-01-27T13:13:29.425Z,4.10
2019-01-27T13:15:58.871Z,3.97
2019-01-27T13:18:28.846Z,4.00
2019-01-27T13:20:58.292Z,4.07
2019-01-27T13:23:28.058Z,4.17
2019-01-27T13:25:57.505Z,5.60
2019-01-27T13:28:26.949Z,4.17
2019-01-27T13:30:56.418Z,5.30
2019-01-27T13:33:26.182Z,3.67
2019-01-27T13:35:55.640Z,4.33
2019-01-27T13:38:25.394Z,3.90
2019-01-27T13:40:55.207Z,3.83
2019-01-27T13:43:24.627Z,4.13
2019-01-27T13:45:54.327Z,3.27
2019-01-27T13:48:23.761Z,4.37
2019-01-27T13:50:53.533Z,3.20
2019-01-27T13:53:23.233Z,3.10
2019-01-27T13:55:52.682Z,5.33
2019-01-27T13:58:22.106Z,6.37
2019-01-27T14:00:51.607Z,6.37
2019-01-27T14:03:21.124Z,7.20
2019-01-27T14:05:50.584Z,7.33
2019-01-27T14:08:21.654Z,7.07
2019-01-27T14:10:51.420Z,5.23
2019-01-27T14:13:20.851Z,4.27
2019-01-27T14:15:50.306Z,4.83
2019-01-27T14:18:20.241Z,2.50
2019-01-27T14:20:49.695Z,3.00
2019-01-27T14:23:19.152Z,2.90
2019-01-27T14:25:48.592Z,2.17
2019-01-27T14:28:19.663Z,1.87
2019-01-27T14:30:49.147Z,1.83
2019-01-27T14:33:18.607Z,1.50
2019-01-27T14:35:48.050Z,1.70
2019-01-27T14:38:17.562Z,1.97
2019-01-27T14:40:47.002Z,1.67
2019-01-27T14:43:16.436Z,1.57
2019-01-27T14:45:46.231Z,2.10
2019-01-27T14:48:15.669Z,1.63
2019-01-27T14:50:47.824Z,2.20
2019-01-27T14:53:17.263Z,1.60
2019-01-27T14:55:46.741Z,3.27
2019-01-27T14:58:16.539Z,1.80
2019-01-27T15:00:45.979Z,1.77
2019-01-27T15:03:15.486Z,1.50
2019-01-27T15:05:44.939Z,2.10
2019-01-27T15:08:14.658Z,1.90
2019-01-27T15:10:44.178Z,2.20
2019-01-27T15:13:13.610Z,2.00
2019-01-27T15:15:44.029Z,2.10
2019-01-27T15:18:13.468Z,2.07
2019-01-27T15:20:46.252Z,1.83
2019-01-27T15:23:15.931Z,1.87
2019-01-27T15:25:45.385Z,1.83
2019-01-27T15:28:14.821Z,1.90
2019-01-27T15:30:44.304Z,3.23
2019-01-27T15:33:14.001Z,5.03
2019-01-27T15:35:43.712Z,4.80
2019-01-27T15:38:13.142Z,5.80
2019-01-27T15:40:42.647Z,5.77
2019-01-27T15:43:12.900Z,5.03
2019-01-27T15:45:42.348Z,5.93
2019-01-27T15:48:11.780Z,7.33
2019-01-27T15:50:41.233Z,5.13
2019-01-27T15:53:10.676Z,4.93
2019-01-27T15:55:40.125Z,8.10
2019-01-27T15:58:09.886Z,6.00
2019-01-27T16:00:39.692Z,6.83
2019-01-27T16:03:09.136Z,5.23
2019-01-27T16:05:38.903Z,3.90
2019-01-27T16:08:08.360Z,6.37
2019-01-27T16:10:37.787Z,6.90
2019-01-27T16:13:07.249Z,19.13
2019-01-27T16:15:37.258Z,6.47
2019-01-27T16:18:07.667Z,5.50
2019-01-27T16:20:37.468Z,11.30
2019-01-27T16:23:19.368Z,7.43
2019-01-27T16:25:48.796Z,4.80
2019-01-27T16:28:18.580Z,6.73
2019-01-27T16:30:49.679Z,5.10
2019-01-27T16:33:36.431Z,11.67
2019-01-27T16:36:05.891Z,7.20
2019-01-27T16:38:35.648Z,7.33
2019-01-27T16:41:05.164Z,8.27
2019-01-27T16:43:34.591Z,8.23
2019-01-27T16:46:04.105Z,6.53
2019-01-27T16:48:33.841Z,7.07
2019-01-27T16:51:03.255Z,7.63
2019-01-27T16:53:33.716Z,6.03
2019-01-27T16:56:03.419Z,7.17
2019-01-27T16:58:32.862Z,7.23
2019-01-27T17:01:02.372Z,5.63
2019-01-27T17:03:31.827Z,9.83
2019-01-27T17:06:01.539Z,10.23
2019-01-27T17:08:30.993Z,14.97
2019-01-27T17:11:00.444Z,15.27
2019-01-27T17:13:29.901Z,10.93
2019-01-27T17:15:59.337Z,13.83
2019-01-27T17:18:28.802Z,26.20
2019-01-27T17:20:58.574Z,14.77
2019-01-27T17:23:28.383Z,16.63
2019-01-27T17:25:57.840Z,14.00
2019-01-27T17:28:32.921Z,11.67
2019-01-27T17:31:02.437Z,12.33
2019-01-27T17:33:45.030Z,11.60
2019-01-27T17:36:14.469Z,10.23
2019-01-27T17:38:44.592Z,9.43
2019-01-27T17:41:14.029Z,13.30
2019-01-27T17:43:43.503Z,10.67
2019-01-27T17:46:12.936Z,17.57
2019-01-27T17:48:42.459Z,11.53
2019-01-27T17:51:13.010Z,12.57
2019-01-27T17:53:44.131Z,12.57
2019-01-27T17:56:13.572Z,10.07
2019-01-27T17:58:44.681Z,9.33
2019-01-27T18:01:18.391Z,8.33
2019-01-27T18:04:05.836Z,8.07
2019-01-27T18:06:39.455Z,7.53
2019-01-27T18:09:11.675Z,7.77
2019-01-27T18:11:57.802Z,7.33
2019-01-27T18:14:29.349Z,8.30
2019-01-27T18:16:58.789Z,9.20
2019-01-27T18:19:28.225Z,10.63
2019-01-27T18:21:57.992Z,14.43
2019-01-27T18:24:27.424Z,9.43
2019-01-27T18:26:56.888Z,18.70
2019-01-27T18:29:26.311Z,11.87
2019-01-27T18:31:56.301Z,10.57
2019-01-27T18:34:25.798Z,20.50
2019-01-27T18:36:55.502Z,43.73
2019-01-27T18:39:24.969Z,13.43
2019-01-27T18:41:54.421Z,12.17
2019-01-27T18:44:24.148Z,13.07
2019-01-27T18:46:53.627Z,9.47
2019-01-27T18:49:23.086Z,9.47
2019-01-27T18:51:52.514Z,17.60
2019-01-27T18:54:26.331Z,14.07
2019-01-27T18:57:06.289Z,12.30
2019-01-27T18:59:55.368Z,7.90
2019-01-27T19:02:32.129Z,10.13
2019-01-27T19:05:03.204Z,9.27
2019-01-27T19:07:36.827Z,9.13
2019-01-27T19:10:13.882Z,11.27
2019-01-27T19:12:45.317Z,10.23
2019-01-27T19:15:16.464Z,10.37
2019-01-27T19:17:47.561Z,9.87
2019-01-27T19:20:27.152Z,10.27
2019-01-27T19:22:58.252Z,10.40
2019-01-27T19:25:41.715Z,10.87
2019-01-27T19:28:27.591Z,10.80
2019-01-27T19:31:04.175Z,11.23
2019-01-27T19:33:43.828Z,12.57
2019-01-27T19:36:26.523Z,11.40
2019-01-27T19:39:00.259Z,9.40
2019-01-27T19:41:31.413Z,12.53
2019-01-27T19:44:02.498Z,10.53
2019-01-27T19:46:33.661Z,9.93
2019-01-27T19:49:13.748Z,13.03
2019-01-27T19:51:44.840Z,13.13
2019-01-27T19:54:15.946Z,13.73
2019-01-27T19:57:02.253Z,12.00
2019-01-27T19:59:33.361Z,13.43
2019-01-27T20:02:07.464Z,14.07
2019-01-27T20:04:38.818Z,12.20
2019-01-27T20:07:13.330Z,12.03
2019-01-27T20:09:47.114Z,14.17
2019-01-27T20:12:21.104Z,13.30
2019-01-27T20:14:55.162Z,10.57
2019-01-27T20:17:29.177Z,11.77
2019-01-27T20:20:09.034Z,12.10
2019-01-27T20:22:40.119Z,10.43
2019-01-27T20:25:14.154Z,12.17
2019-01-27T20:27:48.245Z,11.80
2019-01-27T20:30:25.375Z,10.67
2019-01-27T20:33:05.320Z,13.70
2019-01-27T20:35:42.440Z,10.83
2019-01-27T20:38:13.843Z,12.33
2019-01-27T20:40:44.934Z,13.20
2019-01-27T20:43:16.139Z,12.73
2019-01-27T20:45:47.180Z,11.33
2019-01-27T20:48:34.207Z,15.40
2019-01-27T20:51:11.170Z,12.20
2019-01-27T20:53:42.248Z,12.80
2019-01-27T20:56:15.747Z,10.10
2019-01-27T20:59:03.341Z,10.40
2019-01-27T21:01:34.489Z,10.93
2019-01-27T21:04:18.355Z,10.03
2019-01-27T21:06:49.432Z,11.40
2019-01-27T21:09:20.531Z,13.60
2019-01-27T21:12:00.418Z,12.07
2019-01-27T21:14:50.015Z,10.80
2019-01-27T21:17:27.114Z,11.47
2019-01-27T21:19:56.738Z,11.60
2019-01-27T21:22:26.178Z,11.83
2019-01-27T21:24:55.631Z,12.03
2019-01-27T21:27:25.067Z,13.67
2019-01-27T21:29:54.523Z,13.03
2019-01-27T21:32:23.967Z,11.90
2019-01-27T21:34:53.415Z,12.50
2019-01-27T21:37:22.863Z,11.23
2019-01-27T21:39:52.312Z,10.83
2019-01-27T21:42:21.745Z,9.73
2019-01-27T21:44:51.469Z,11.10
2019-01-27T21:47:20.907Z,11.33
2019-01-27T21:49:50.577Z,11.30
2019-01-27T21:52:20.008Z,10.03
2019-01-27T21:54:49.456Z,9.60
2019-01-27T21:57:18.891Z,11.77
2019-01-27T21:59:48.347Z,11.97
2019-01-27T22:02:17.780Z,9.93
2019-01-27T22:04:47.234Z,12.50
2019-01-27T22:07:16.673Z,11.57
2019-01-27T22:09:46.129Z,11.80
2019-01-27T22:12:15.594Z,11.27
2019-01-27T22:14:45.045Z,11.87
2019-01-27T22:17:14.834Z,11.07
2019-01-27T22:19:44.537Z,12.03
2019-01-27T22:22:13.975Z,11.97
2019-01-27T22:24:43.434Z,12.13
2019-01-27T22:27:12.891Z,12.80
2019-01-27T22:29:42.320Z,10.53
2019-01-27T22:32:11.772Z,11.53
2019-01-27T22:34:41.575Z,10.13
2019-01-27T22:37:11.011Z,13.73
2019-01-27T22:39:40.718Z,11.17
2019-01-27T22:42:10.601Z,11.90
2019-01-27T22:44:40.037Z,14.03
2019-01-27T22:47:09.585Z,11.63
2019-01-27T22:49:39.025Z,12.63
2019-01-27T22:52:08.552Z,13.03
2019-01-27T22:54:38.033Z,14.23
2019-01-27T22:57:07.489Z,12.97
2019-01-27T22:59:36.943Z,13.03
2019-01-27T23:02:06.543Z,12.43
2019-01-27T23:04:36.308Z,11.47
2019-01-27T23:07:05.766Z,12.60
2019-01-27T23:09:35.209Z,11.77
2019-01-27T23:12:04.833Z,13.17
2019-01-27T23:14:34.281Z,11.17
2019-01-27T23:17:04.082Z,11.50
2019-01-27T23:19:33.527Z,11.87
2019-01-27T23:22:02.966Z,11.40
2019-01-27T23:24:32.411Z,11.83
2019-01-27T23:27:01.859Z,14.53
2019-01-27T23:29:31.611Z,11.53
2019-01-27T23:32:01.071Z,14.30
2019-01-27T23:34:30.588Z,13.07
2019-01-27T23:37:01.411Z,12.23
2019-01-27T23:39:30.852Z,12.30
2019-01-27T23:42:00.313Z,15.47
2019-01-27T23:44:29.836Z,16.07
2019-01-27T23:46:59.282Z,14.00
2019-01-27T23:49:29.087Z,14.73
2019-01-27T23:51:58.545Z,13.90
2019-01-27T23:54:27.995Z,13.23
2019-01-27T23:56:57.799Z,14.83
2019-01-27T23:59:27.237Z,15.60
